createdAt,value
2018-12-29T00:00:45.391Z,31.80
2018-12-29T00:01:18.474Z,30.70
2018-12-29T00:01:51.617Z,31.33
2018-12-29T00:02:24.473Z,31.20
2018-12-29T00:02:57.404Z,32.00
2018-12-29T00:03:30.462Z,31.62
2018-12-29T00:04:03.531Z,31.02
2018-12-29T00:04:36.402Z,31.17
2018-12-29T00:05:09.451Z,31.45
2018-12-29T00:05:42.319Z,31.68
2018-12-29T00:06:15.307Z,31.12
2018-12-29T00:06:48.376Z,31.37
2018-12-29T00:07:21.308Z,31.23
2018-12-29T00:07:54.378Z,31.55
2018-12-29T00:08:27.597Z,32.03
2018-12-29T00:09:00.493Z,30.65
2018-12-29T00:09:33.324Z,31.55
2018-12-29T00:10:06.312Z,32.05
2018-12-29T00:10:41.197Z,31.55
2018-12-29T00:11:14.161Z,31.93
2018-12-29T00:11:47.094Z,31.70
2018-12-29T00:12:20.049Z,31.87
2018-12-29T00:12:53.111Z,32.48
2018-12-29T00:13:26.152Z,34.15
2018-12-29T00:13:59.124Z,31.57
2018-12-29T00:14:31.982Z,31.50
2018-12-29T00:15:05.078Z,31.85
2018-12-29T00:15:38.025Z,32.25
2018-12-29T00:16:10.897Z,31.43
2018-12-29T00:16:43.990Z,32.08
2018-12-29T00:17:16.969Z,32.05
2018-12-29T00:17:49.926Z,32.10
2018-12-29T00:18:22.880Z,31.93
2018-12-29T00:18:55.863Z,31.68
2018-12-29T00:19:28.878Z,31.50
2018-12-29T00:20:01.933Z,32.08
2018-12-29T00:20:35.002Z,31.52
2018-12-29T00:21:07.938Z,36.63
2018-12-29T00:21:41.011Z,32.70
2018-12-29T00:22:13.856Z,33.35
2018-12-29T00:22:46.812Z,32.35
2018-12-29T00:23:19.838Z,33.28
2018-12-29T00:23:52.770Z,33.80
2018-12-29T00:24:25.826Z,33.35
2018-12-29T00:24:58.910Z,33.35
2018-12-29T00:25:31.963Z,32.35
2018-12-29T00:26:05.133Z,32.83
2018-12-29T00:26:38.204Z,32.78
2018-12-29T00:27:11.264Z,33.33
2018-12-29T00:27:44.248Z,32.90
2018-12-29T00:28:17.242Z,34.45
2018-12-29T00:28:50.183Z,34.48
2018-12-29T00:29:23.092Z,33.10
2018-12-29T00:29:56.176Z,33.00
2018-12-29T00:30:29.229Z,33.73
2018-12-29T00:31:02.154Z,33.28
2018-12-29T00:31:35.400Z,32.95
2018-12-29T00:32:08.346Z,31.80
2018-12-29T00:32:41.459Z,34.15
2018-12-29T00:33:14.372Z,31.97
2018-12-29T00:33:47.401Z,31.82
2018-12-29T00:34:20.208Z,35.38
2018-12-29T00:34:53.340Z,35.70
2018-12-29T00:35:26.396Z,32.80
2018-12-29T00:35:59.406Z,33.33
2018-12-29T00:36:32.299Z,35.05
2018-12-29T00:37:05.363Z,32.98
2018-12-29T00:37:38.370Z,32.80
2018-12-29T00:38:11.305Z,35.25
2018-12-29T00:38:44.230Z,33.18
2018-12-29T00:39:17.129Z,32.70
2018-12-29T00:39:50.087Z,33.13
2018-12-29T00:40:23.126Z,33.40
2018-12-29T00:40:56.053Z,33.15
2018-12-29T00:41:28.970Z,33.23
2018-12-29T00:42:01.900Z,32.98
2018-12-29T00:42:34.695Z,33.30
2018-12-29T00:43:07.597Z,33.35
2018-12-29T00:43:40.420Z,35.40
2018-12-29T00:44:13.365Z,34.83
2018-12-29T00:44:46.165Z,33.33
2018-12-29T00:45:19.179Z,32.70
2018-12-29T00:45:52.093Z,32.98
2018-12-29T00:46:25.026Z,32.23
2018-12-29T00:46:57.925Z,33.02
2018-12-29T00:47:30.758Z,33.38
2018-12-29T00:48:03.875Z,33.85
2018-12-29T00:48:36.714Z,33.23
2018-12-29T00:49:09.529Z,33.85
2018-12-29T00:49:42.447Z,32.45
2018-12-29T00:50:15.457Z,33.55
2018-12-29T00:50:48.417Z,33.25
2018-12-29T00:51:21.411Z,35.20
2018-12-29T00:51:54.336Z,33.30
2018-12-29T00:52:27.261Z,33.23
2018-12-29T00:53:00.085Z,33.38
2018-12-29T00:53:33.013Z,33.67
2018-12-29T00:54:06.069Z,34.18
2018-12-29T00:54:39.038Z,32.42
2018-12-29T00:55:11.987Z,34.05
2018-12-29T00:55:44.869Z,32.60
2018-12-29T00:56:17.989Z,34.10
2018-12-29T00:56:50.895Z,33.55
2018-12-29T00:57:23.719Z,34.18
2018-12-29T00:57:56.539Z,33.70
2018-12-29T00:58:29.573Z,34.78
2018-12-29T00:59:02.463Z,33.43
2018-12-29T00:59:35.397Z,36.42
2018-12-29T01:00:08.431Z,33.67
2018-12-29T01:00:41.289Z,33.75
2018-12-29T01:01:14.103Z,34.15
2018-12-29T01:01:47.123Z,33.70
2018-12-29T01:02:20.056Z,33.65
2018-12-29T01:02:52.997Z,32.90
2018-12-29T01:03:25.959Z,38.42
2018-12-29T01:03:58.783Z,32.95
2018-12-29T01:04:31.719Z,33.55
2018-12-29T01:05:04.739Z,32.65
2018-12-29T01:05:37.855Z,34.33
2018-12-29T01:06:10.871Z,37.23
2018-12-29T01:06:43.799Z,33.00
2018-12-29T01:07:16.907Z,35.48
2018-12-29T01:07:49.845Z,33.63
2018-12-29T01:08:22.959Z,35.63
2018-12-29T01:08:55.908Z,33.15
2018-12-29T01:09:28.718Z,33.40
2018-12-29T01:10:01.812Z,33.83
2018-12-29T01:10:34.834Z,33.30
2018-12-29T01:11:07.639Z,33.28
2018-12-29T01:11:40.573Z,33.83
2018-12-29T01:13:01.248Z,33.00
2018-12-29T01:13:34.527Z,33.30
2018-12-29T01:14:07.385Z,34.05
2018-12-29T01:14:40.319Z,35.15
2018-12-29T01:15:13.181Z,33.65
2018-12-29T01:15:46.115Z,33.80
2018-12-29T01:16:19.053Z,35.75
2018-12-29T01:16:52.014Z,35.50
2018-12-29T01:17:25.091Z,33.23
2018-12-29T01:17:58.085Z,35.73
2018-12-29T01:18:31.192Z,35.08
2018-12-29T01:19:04.235Z,33.60
2018-12-29T01:19:37.333Z,34.05
2018-12-29T01:20:10.361Z,33.53
2018-12-29T01:20:43.442Z,34.37
2018-12-29T01:21:30.655Z,34.20
2018-12-29T01:22:03.803Z,33.42
2018-12-29T01:22:37.003Z,33.85
2018-12-29T01:23:09.900Z,33.15
2018-12-29T01:24:39.395Z,37.10
2018-12-29T01:25:12.472Z,34.40
2018-12-29T01:25:45.445Z,35.35
2018-12-29T01:26:18.397Z,33.78
2018-12-29T01:26:51.408Z,33.83
2018-12-29T01:27:24.447Z,34.35
2018-12-29T01:27:57.519Z,37.63
2018-12-29T01:28:30.486Z,33.63
2018-12-29T01:29:03.564Z,35.95
2018-12-29T01:29:36.504Z,33.58
2018-12-29T01:30:09.456Z,35.38
2018-12-29T01:30:42.546Z,35.78
2018-12-29T01:31:15.507Z,34.03
2018-12-29T01:31:48.581Z,34.58
2018-12-29T01:32:21.410Z,33.55
2018-12-29T01:32:54.496Z,39.50
2018-12-29T01:33:47.172Z,34.38
2018-12-29T01:34:20.012Z,34.90
2018-12-29T01:34:52.890Z,33.90
2018-12-29T01:35:25.943Z,34.45
2018-12-29T01:35:58.888Z,37.78
2018-12-29T01:36:31.795Z,34.43
2018-12-29T01:37:04.822Z,33.65
2018-12-29T01:37:37.900Z,35.13
2018-12-29T01:38:10.862Z,36.23
2018-12-29T01:38:43.948Z,34.60
2018-12-29T01:39:17.023Z,34.67
2018-12-29T01:39:49.882Z,34.55
2018-12-29T01:40:22.856Z,34.25
2018-12-29T01:40:55.724Z,36.17
2018-12-29T01:41:28.596Z,37.15
2018-12-29T01:42:01.562Z,34.08
2018-12-29T01:42:34.636Z,34.15
2018-12-29T01:43:07.620Z,34.00
2018-12-29T01:43:40.538Z,39.78
2018-12-29T01:44:13.561Z,35.52
2018-12-29T01:44:46.747Z,34.75
2018-12-29T01:45:19.816Z,34.23
2018-12-29T01:45:52.840Z,34.38
2018-12-29T01:46:25.731Z,36.95
2018-12-29T01:46:58.876Z,36.17
2018-12-29T01:47:31.904Z,33.98
2018-12-29T01:48:04.823Z,34.80
2018-12-29T01:48:37.750Z,36.70
2018-12-29T01:49:12.598Z,36.35
2018-12-29T01:49:45.561Z,35.58
2018-12-29T01:50:18.632Z,34.43
2018-12-29T01:50:51.780Z,35.63
2018-12-29T01:51:24.844Z,37.58
2018-12-29T01:51:59.774Z,35.33
2018-12-29T01:52:32.800Z,36.03
2018-12-29T01:53:05.909Z,38.28
2018-12-29T01:55:05.648Z,34.95
2018-12-29T01:55:38.590Z,34.50
2018-12-29T01:56:11.474Z,37.93
2018-12-29T01:56:44.404Z,33.53
2018-12-29T01:57:17.327Z,34.25
2018-12-29T01:57:50.268Z,37.05
2018-12-29T01:58:23.232Z,38.25
2018-12-29T01:58:56.256Z,34.38
2018-12-29T01:59:29.150Z,39.83
2018-12-29T02:00:02.238Z,36.95
2018-12-29T02:00:35.292Z,35.88
2018-12-29T02:01:08.150Z,38.13
2018-12-29T02:01:41.139Z,38.30
2018-12-29T02:02:13.960Z,35.85
2018-12-29T02:02:46.916Z,37.15
2018-12-29T02:03:19.873Z,39.15
2018-12-29T02:03:53.569Z,39.13
2018-12-29T02:04:26.706Z,38.00
2018-12-29T02:04:59.680Z,36.23
2018-12-29T02:05:32.658Z,36.53
2018-12-29T02:06:05.759Z,39.78
2018-12-29T02:06:38.821Z,35.35
2018-12-29T02:07:11.809Z,35.92
2018-12-29T02:07:44.675Z,36.77
2018-12-29T02:08:17.713Z,39.18
2018-12-29T02:08:50.687Z,38.20
2018-12-29T02:09:23.651Z,41.10
2018-12-29T02:09:56.698Z,38.78
2018-12-29T02:10:29.741Z,41.80
2018-12-29T02:11:02.722Z,37.15
2018-12-29T02:11:35.753Z,34.48
2018-12-29T02:12:08.696Z,39.38
2018-12-29T02:12:41.779Z,42.10
2018-12-29T02:13:14.727Z,34.30
2018-12-29T02:13:47.701Z,41.02
2018-12-29T02:14:20.768Z,37.70
2018-12-29T02:14:53.645Z,43.23
2018-12-29T02:15:26.489Z,38.42
2018-12-29T02:15:59.335Z,39.42
2018-12-29T02:16:32.407Z,35.35
2018-12-29T02:17:05.358Z,35.20
2018-12-29T02:17:38.249Z,39.05
2018-12-29T02:18:13.281Z,38.10
2018-12-29T02:18:54.360Z,39.27
2018-12-29T02:19:27.329Z,38.90
2018-12-29T02:20:00.369Z,35.88
2018-12-29T02:20:33.397Z,34.92
2018-12-29T02:21:06.351Z,40.83
2018-12-29T02:21:39.415Z,38.85
2018-12-29T02:22:12.393Z,38.63
2018-12-29T02:22:45.328Z,37.20
2018-12-29T02:23:18.226Z,37.15
2018-12-29T02:23:51.103Z,36.45
2018-12-29T02:24:24.150Z,36.68
2018-12-29T02:24:57.143Z,39.03
2018-12-29T02:25:30.137Z,36.60
2018-12-29T02:26:03.070Z,39.18
2018-12-29T02:26:36.036Z,35.63
2018-12-29T02:27:09.087Z,34.78
2018-12-29T02:27:42.115Z,34.88
2018-12-29T02:28:15.097Z,38.28
2018-12-29T02:28:48.221Z,38.02
2018-12-29T02:29:21.263Z,35.08
2018-12-29T02:29:54.207Z,40.70
2018-12-29T02:30:27.088Z,39.27
2018-12-29T02:31:00.107Z,37.65
2018-12-29T02:31:33.144Z,36.60
2018-12-29T02:32:06.111Z,38.08
2018-12-29T02:32:38.993Z,42.98
2018-12-29T02:33:11.943Z,40.88
2018-12-29T02:34:53.828Z,36.90
2018-12-29T02:35:26.657Z,40.67
2018-12-29T02:35:59.658Z,37.95
2018-12-29T02:36:32.617Z,39.15
2018-12-29T02:37:05.427Z,35.58
2018-12-29T02:37:38.531Z,38.88
2018-12-29T02:38:11.479Z,35.15
2018-12-29T02:38:44.553Z,38.38
2018-12-29T02:39:17.526Z,43.42
2018-12-29T02:39:50.496Z,41.33
2018-12-29T02:40:23.524Z,42.78
2018-12-29T02:40:56.691Z,37.45
2018-12-29T02:41:29.620Z,43.10
2018-12-29T02:42:02.663Z,40.35
2018-12-29T02:42:35.568Z,37.48
2018-12-29T02:43:08.429Z,40.48
2018-12-29T02:43:41.473Z,37.28
2018-12-29T02:44:14.414Z,37.80
2018-12-29T02:44:47.444Z,36.77
2018-12-29T02:45:20.365Z,39.08
2018-12-29T02:45:53.307Z,37.55
2018-12-29T02:46:26.374Z,35.78
2018-12-29T02:46:59.246Z,43.13
2018-12-29T02:47:32.265Z,42.60
2018-12-29T02:48:05.244Z,35.13
2018-12-29T02:48:38.192Z,41.53
2018-12-29T02:49:11.194Z,40.98
2018-12-29T02:49:57.557Z,41.92
2018-12-29T02:50:30.420Z,44.20
2018-12-29T02:51:03.378Z,37.30
2018-12-29T02:51:36.412Z,43.48
2018-12-29T02:52:09.327Z,41.35
2018-12-29T02:52:42.298Z,38.23
2018-12-29T02:53:15.244Z,41.73
2018-12-29T02:53:48.280Z,35.95
2018-12-29T02:54:21.273Z,38.65
2018-12-29T02:54:54.221Z,41.60
2018-12-29T02:55:27.183Z,44.93
2018-12-29T02:56:00.059Z,36.58
2018-12-29T02:56:33.112Z,43.35
2018-12-29T02:57:06.046Z,36.83
2018-12-29T02:57:39.101Z,40.20
2018-12-29T02:58:12.093Z,43.05
2018-12-29T02:58:45.164Z,39.83
2018-12-29T02:59:18.193Z,39.42
2018-12-29T02:59:51.242Z,38.20
2018-12-29T03:00:24.178Z,38.65
2018-12-29T03:00:57.267Z,41.88
2018-12-29T03:01:30.228Z,38.65
2018-12-29T03:02:03.574Z,39.48
2018-12-29T03:02:38.416Z,40.60
2018-12-29T03:03:11.283Z,37.45
2018-12-29T03:03:44.238Z,42.65
2018-12-29T03:04:17.103Z,35.92
2018-12-29T03:04:50.285Z,39.00
2018-12-29T03:05:23.253Z,39.88
2018-12-29T03:05:56.182Z,39.23
2018-12-29T03:06:29.118Z,41.28
2018-12-29T03:07:02.036Z,40.33
2018-12-29T03:07:35.113Z,39.00
2018-12-29T03:08:08.002Z,36.58
2018-12-29T03:08:40.936Z,41.00
2018-12-29T03:09:13.821Z,38.58
2018-12-29T03:09:46.775Z,42.78
2018-12-29T03:10:19.875Z,40.63
2018-12-29T03:10:52.834Z,39.38
2018-12-29T03:11:25.633Z,39.05
2018-12-29T03:11:59.266Z,43.45
2018-12-29T03:12:32.164Z,40.85
2018-12-29T03:13:05.019Z,43.55
2018-12-29T03:13:37.912Z,42.13
2018-12-29T03:14:10.965Z,38.45
2018-12-29T03:14:43.874Z,40.55
2018-12-29T03:15:16.682Z,41.15
2018-12-29T03:15:49.677Z,38.73
2018-12-29T03:16:22.603Z,42.95
2018-12-29T03:16:55.489Z,41.77
2018-12-29T03:17:28.447Z,40.43
2018-12-29T03:18:01.348Z,42.23
2018-12-29T03:18:34.172Z,45.67
2018-12-29T03:19:07.171Z,43.65
2018-12-29T03:19:40.361Z,45.10
2018-12-29T03:20:13.400Z,40.48
2018-12-29T03:20:46.347Z,45.10
2018-12-29T03:21:19.146Z,45.15
2018-12-29T03:21:52.190Z,45.40
2018-12-29T03:22:25.095Z,44.63
2018-12-29T03:22:57.917Z,45.58
2018-12-29T03:23:30.735Z,37.40
2018-12-29T03:24:03.711Z,41.68
2018-12-29T03:24:36.738Z,45.52
2018-12-29T03:25:09.749Z,47.08
2018-12-29T03:25:42.761Z,43.48
2018-12-29T03:26:15.677Z,45.15
2018-12-29T03:26:48.501Z,47.65
2018-12-29T03:27:21.275Z,44.45
2018-12-29T03:27:54.126Z,43.80
2018-12-29T03:28:26.911Z,48.78
2018-12-29T03:28:59.831Z,42.78
2018-12-29T03:29:32.727Z,44.65
2018-12-29T03:30:05.961Z,46.48
2018-12-29T03:30:38.851Z,42.10
2018-12-29T03:31:11.865Z,43.30
2018-12-29T03:31:44.651Z,41.15
2018-12-29T03:32:17.550Z,46.65
2018-12-29T03:32:50.364Z,40.40
2018-12-29T03:33:23.242Z,44.95
2018-12-29T03:33:56.239Z,45.78
2018-12-29T03:34:29.293Z,44.30
2018-12-29T03:35:02.303Z,43.50
2018-12-29T03:35:35.313Z,45.05
2018-12-29T03:36:08.355Z,45.35
2018-12-29T03:36:41.235Z,44.20
2018-12-29T03:37:14.058Z,46.15
2018-12-29T03:37:47.046Z,44.55
2018-12-29T03:38:19.874Z,44.38
2018-12-29T03:38:52.672Z,49.45
2018-12-29T03:39:25.618Z,45.20
2018-12-29T03:39:58.641Z,45.12
2018-12-29T03:40:31.535Z,48.52
2018-12-29T03:41:45.500Z,48.35
2018-12-29T03:42:20.425Z,45.85
2018-12-29T03:42:53.370Z,43.78
2018-12-29T03:43:26.378Z,45.38
2018-12-29T03:43:59.365Z,50.43
2018-12-29T03:44:32.423Z,47.35
2018-12-29T03:45:05.647Z,50.38
2018-12-29T03:45:38.934Z,42.50
2018-12-29T03:46:12.122Z,49.03
2018-12-29T03:46:45.171Z,44.60
2018-12-29T03:47:18.148Z,47.93
2018-12-29T03:47:51.163Z,47.33
2018-12-29T03:48:24.197Z,41.77
2018-12-29T03:48:57.375Z,42.78
2018-12-29T03:49:30.365Z,48.30
2018-12-29T03:50:03.938Z,45.40
2018-12-29T03:51:00.045Z,48.13
2018-12-29T03:51:33.150Z,48.60
2018-12-29T03:52:06.143Z,44.45
2018-12-29T03:53:26.945Z,45.23
2018-12-29T03:53:59.874Z,46.92
2018-12-29T03:54:32.878Z,43.78
2018-12-29T03:55:05.879Z,42.75
2018-12-29T03:55:39.045Z,45.12
2018-12-29T03:56:12.250Z,44.93
2018-12-29T03:56:45.427Z,44.23
2018-12-29T03:57:18.382Z,41.90
2018-12-29T03:57:51.249Z,42.95
2018-12-29T03:58:24.222Z,42.25
2018-12-29T03:58:57.070Z,48.85
2018-12-29T03:59:29.928Z,48.60
2018-12-29T04:00:03.524Z,46.55
2018-12-29T04:00:36.449Z,42.40
2018-12-29T04:01:09.506Z,47.03
2018-12-29T04:01:42.564Z,43.30
2018-12-29T04:02:15.675Z,43.48
2018-12-29T04:02:48.657Z,45.00
2018-12-29T04:03:21.594Z,46.15
2018-12-29T04:03:54.726Z,45.23
2018-12-29T04:04:27.768Z,48.33
2018-12-29T04:05:00.873Z,45.83
2018-12-29T04:05:33.905Z,45.35
2018-12-29T04:06:06.933Z,47.35
2018-12-29T04:06:39.894Z,44.75
2018-12-29T04:07:12.948Z,44.65
2018-12-29T04:07:46.002Z,41.50
2018-12-29T04:08:18.954Z,43.15
2018-12-29T04:09:49.472Z,46.48
2018-12-29T04:10:22.437Z,43.30
2018-12-29T04:10:55.461Z,43.28
2018-12-29T04:11:28.318Z,46.30
2018-12-29T04:12:23.363Z,45.33
2018-12-29T04:13:00.735Z,48.60
2018-12-29T04:13:34.864Z,43.73
2018-12-29T04:14:07.834Z,49.93
2018-12-29T04:14:41.424Z,47.35
2018-12-29T04:15:15.382Z,42.60
2018-12-29T04:15:48.384Z,44.45
2018-12-29T04:16:21.340Z,45.58
2018-12-29T04:16:54.580Z,39.60
2018-12-29T04:17:27.549Z,42.62
2018-12-29T04:18:00.634Z,40.70
2018-12-29T04:18:33.528Z,40.70
2018-12-29T04:19:06.373Z,44.23
2018-12-29T04:19:39.249Z,40.43
2018-12-29T04:20:12.200Z,38.95
2018-12-29T04:20:45.150Z,40.48
2018-12-29T04:21:18.172Z,43.87
2018-12-29T04:21:51.170Z,42.90
2018-12-29T04:22:24.026Z,46.18
2018-12-29T04:22:57.003Z,45.35
2018-12-29T04:23:29.934Z,42.53
2018-12-29T04:24:03.031Z,42.65
2018-12-29T04:24:35.906Z,42.88
2018-12-29T04:25:08.985Z,39.48
2018-12-29T04:25:42.026Z,41.75
2018-12-29T04:26:14.956Z,43.38
2018-12-29T04:26:48.015Z,42.73
2018-12-29T04:27:21.010Z,42.98
2018-12-29T04:27:53.972Z,45.73
2018-12-29T04:28:26.829Z,49.88
2018-12-29T04:28:59.866Z,46.15
2018-12-29T04:29:32.822Z,40.58
2018-12-29T04:30:05.833Z,46.37
2018-12-29T04:30:38.749Z,46.55
2018-12-29T04:31:11.791Z,41.23
2018-12-29T04:31:44.890Z,41.37
2018-12-29T04:32:17.848Z,50.45
2018-12-29T04:32:50.827Z,43.65
2018-12-29T04:33:51.466Z,41.37
2018-12-29T04:34:24.429Z,39.70
2018-12-29T04:34:57.368Z,41.30
2018-12-29T04:36:15.970Z,44.83
2018-12-29T04:36:48.948Z,44.23
2018-12-29T04:37:21.885Z,41.83
2018-12-29T04:37:54.979Z,40.30
2018-12-29T04:38:28.063Z,43.73
2018-12-29T04:39:00.924Z,40.75
2018-12-29T04:39:34.009Z,47.53
2018-12-29T04:40:07.063Z,44.70
2018-12-29T04:40:39.919Z,46.35
2018-12-29T04:41:12.767Z,45.20
2018-12-29T04:41:45.703Z,43.10
2018-12-29T04:42:18.625Z,39.27
2018-12-29T04:42:51.655Z,43.40
2018-12-29T04:43:26.495Z,47.53
2018-12-29T04:43:59.554Z,46.48
2018-12-29T04:44:32.662Z,40.38
2018-12-29T04:45:05.784Z,42.55
2018-12-29T04:45:38.843Z,42.70
2018-12-29T04:46:11.888Z,42.53
2018-12-29T04:46:44.741Z,41.48
2018-12-29T04:47:17.790Z,41.95
2018-12-29T04:47:50.840Z,44.05
2018-12-29T04:48:23.923Z,40.10
2018-12-29T04:48:56.959Z,47.83
2018-12-29T04:49:29.927Z,41.18
2018-12-29T04:50:03.079Z,47.27
2018-12-29T04:50:36.126Z,46.53
2018-12-29T04:51:09.216Z,40.33
2018-12-29T04:51:42.245Z,45.33
2018-12-29T04:52:15.203Z,47.85
2018-12-29T04:52:48.283Z,38.15
2018-12-29T04:53:21.111Z,42.43
2018-12-29T04:53:54.065Z,43.08
2018-12-29T04:54:27.203Z,41.10
2018-12-29T04:55:00.088Z,37.00
2018-12-29T04:55:47.239Z,40.70
2018-12-29T04:56:20.353Z,40.75
2018-12-29T04:56:53.413Z,39.35
2018-12-29T04:57:26.391Z,44.33
2018-12-29T04:57:59.397Z,43.17
2018-12-29T04:58:32.473Z,41.15
2018-12-29T04:59:05.427Z,41.92
2018-12-29T04:59:38.285Z,43.87
2018-12-29T05:00:11.371Z,42.58
2018-12-29T05:00:44.487Z,42.10
2018-12-29T05:01:17.649Z,42.45
2018-12-29T05:01:50.725Z,40.30
2018-12-29T05:02:37.793Z,40.80
2018-12-29T05:03:10.823Z,42.73
2018-12-29T05:03:43.908Z,41.33
2018-12-29T05:04:16.827Z,42.30
2018-12-29T05:04:49.881Z,41.25
2018-12-29T05:05:22.893Z,41.08
2018-12-29T05:05:55.983Z,42.60
2018-12-29T05:06:28.959Z,43.87
2018-12-29T05:07:01.977Z,41.05
2018-12-29T05:07:34.907Z,45.48
2018-12-29T05:08:07.895Z,43.13
2018-12-29T05:08:41.074Z,42.05
2018-12-29T05:09:14.016Z,42.23
2018-12-29T05:09:46.816Z,41.30
2018-12-29T05:10:19.775Z,40.55
2018-12-29T05:10:52.661Z,42.58
2018-12-29T05:11:25.713Z,42.88
2018-12-29T05:11:58.514Z,42.67
2018-12-29T05:12:31.450Z,46.05
2018-12-29T05:13:04.256Z,47.43
2018-12-29T05:13:37.337Z,45.67
2018-12-29T05:14:10.242Z,41.98
2018-12-29T05:14:43.191Z,38.30
2018-12-29T05:15:16.195Z,43.95
2018-12-29T05:15:49.244Z,43.15
2018-12-29T05:16:22.231Z,43.73
2018-12-29T05:16:55.418Z,40.10
2018-12-29T05:17:28.211Z,40.52
2018-12-29T05:18:01.258Z,37.85
2018-12-29T05:18:34.053Z,44.50
2018-12-29T05:19:06.991Z,42.67
2018-12-29T05:19:39.825Z,43.38
2018-12-29T05:20:12.769Z,44.00
2018-12-29T05:21:08.605Z,47.38
2018-12-29T05:21:41.577Z,37.80
2018-12-29T05:22:14.506Z,40.35
2018-12-29T05:22:47.389Z,43.87
2018-12-29T05:23:20.383Z,38.80
2018-12-29T05:24:41.445Z,44.93
2018-12-29T05:25:14.548Z,46.83
2018-12-29T05:25:47.496Z,40.35
2018-12-29T05:26:20.441Z,44.08
2018-12-29T05:26:53.457Z,43.20
2018-12-29T05:27:26.435Z,41.28
2018-12-29T05:27:59.550Z,42.95
2018-12-29T05:28:32.489Z,42.27
2018-12-29T05:29:05.473Z,44.10
2018-12-29T05:29:38.555Z,47.93
2018-12-29T05:30:11.489Z,41.08
2018-12-29T05:30:44.437Z,44.73
2018-12-29T05:31:17.518Z,43.48
2018-12-29T05:31:50.461Z,41.92
2018-12-29T05:32:23.355Z,45.23
2018-12-29T05:32:56.173Z,42.40
2018-12-29T05:33:29.073Z,36.30
2018-12-29T05:34:02.257Z,35.85
2018-12-29T05:34:35.087Z,42.33
2018-12-29T05:35:08.002Z,43.23
2018-12-29T05:35:40.912Z,36.23
2018-12-29T05:36:13.971Z,41.25
2018-12-29T05:36:46.978Z,41.53
2018-12-29T05:37:19.814Z,36.23
2018-12-29T05:37:52.608Z,40.52
2018-12-29T05:38:25.657Z,44.75
2018-12-29T05:38:58.543Z,40.50
2018-12-29T05:39:31.380Z,38.73
2018-12-29T05:40:04.397Z,43.78
2018-12-29T05:40:37.579Z,44.65
2018-12-29T05:41:10.504Z,36.88
2018-12-29T05:41:43.336Z,43.70
2018-12-29T05:42:16.244Z,38.08
2018-12-29T05:42:49.189Z,42.50
2018-12-29T05:43:22.139Z,40.95
2018-12-29T05:43:54.921Z,43.55
2018-12-29T05:44:27.744Z,44.42
2018-12-29T05:45:00.753Z,39.95
2018-12-29T05:45:33.678Z,42.67
2018-12-29T05:46:06.613Z,37.23
2018-12-29T05:46:39.442Z,41.63
2018-12-29T05:47:12.366Z,40.90
2018-12-29T05:47:45.366Z,39.35
2018-12-29T05:48:18.180Z,41.37
2018-12-29T05:48:51.092Z,36.65
2018-12-29T05:49:24.046Z,39.78
2018-12-29T05:49:56.955Z,39.98
2018-12-29T05:50:29.916Z,35.83
2018-12-29T05:51:02.922Z,39.90
2018-12-29T05:51:35.864Z,39.03
2018-12-29T05:52:08.784Z,41.28
2018-12-29T05:52:41.682Z,36.65
2018-12-29T05:53:14.614Z,40.73
2018-12-29T05:53:49.359Z,40.00
2018-12-29T05:54:22.254Z,35.63
2018-12-29T05:54:55.224Z,38.65
2018-12-29T05:55:28.060Z,41.37
2018-12-29T05:56:01.041Z,37.25
2018-12-29T05:56:34.220Z,39.08
2018-12-29T05:57:07.166Z,39.63
2018-12-29T05:57:39.977Z,40.08
2018-12-29T05:58:12.972Z,38.38
2018-12-29T05:58:45.973Z,35.60
2018-12-29T05:59:19.132Z,37.17
2018-12-29T05:59:52.208Z,44.20
2018-12-29T06:00:25.159Z,37.55
2018-12-29T06:00:58.118Z,37.63
2018-12-29T06:01:31.282Z,40.40
2018-12-29T06:02:04.256Z,37.33
2018-12-29T06:02:37.152Z,40.43
2018-12-29T06:03:10.044Z,39.20
2018-12-29T06:03:42.948Z,39.03
2018-12-29T06:04:15.861Z,35.50
2018-12-29T06:04:48.776Z,39.23
2018-12-29T06:05:21.794Z,38.75
2018-12-29T06:05:54.650Z,35.03
2018-12-29T06:06:47.237Z,36.03
2018-12-29T06:07:20.168Z,34.15
2018-12-29T06:07:53.136Z,36.70
2018-12-29T06:08:26.006Z,35.15
2018-12-29T06:08:58.904Z,34.63
2018-12-29T06:09:31.859Z,36.13
2018-12-29T06:10:04.928Z,33.85
2018-12-29T06:10:37.928Z,34.40
2018-12-29T06:11:10.899Z,37.33
2018-12-29T06:11:43.848Z,35.40
2018-12-29T06:12:16.758Z,36.75
2018-12-29T06:12:49.644Z,35.23
2018-12-29T06:13:22.608Z,34.98
2018-12-29T06:13:55.662Z,35.17
2018-12-29T06:14:28.534Z,35.28
2018-12-29T06:15:01.638Z,37.35
2018-12-29T06:15:34.628Z,33.80
2018-12-29T06:16:07.609Z,34.27
2018-12-29T06:16:40.580Z,34.55
2018-12-29T06:17:13.640Z,36.70
2018-12-29T06:17:46.616Z,34.30
2018-12-29T06:18:19.447Z,33.67
2018-12-29T06:18:52.496Z,34.05
2018-12-29T06:19:25.453Z,35.58
2018-12-29T06:19:58.296Z,34.00
2018-12-29T06:20:31.342Z,34.50
2018-12-29T06:21:04.414Z,32.58
2018-12-29T06:21:37.502Z,34.10
2018-12-29T06:22:10.470Z,33.38
2018-12-29T06:22:43.343Z,35.50
2018-12-29T06:23:16.431Z,34.83
2018-12-29T06:23:49.470Z,33.67
2018-12-29T06:24:22.398Z,34.20
2018-12-29T06:24:55.468Z,34.18
2018-12-29T06:25:28.403Z,33.50
2018-12-29T06:26:01.270Z,33.08
2018-12-29T06:26:34.346Z,33.70
2018-12-29T06:27:07.316Z,32.53
2018-12-29T06:27:40.310Z,33.08
2018-12-29T06:28:13.242Z,33.70
2018-12-29T06:28:46.183Z,33.50
2018-12-29T06:29:19.106Z,34.20
2018-12-29T06:29:52.118Z,34.30
2018-12-29T06:30:25.084Z,33.08
2018-12-29T06:30:58.062Z,33.28
2018-12-29T06:31:31.024Z,33.10
2018-12-29T06:32:04.235Z,32.88
2018-12-29T06:32:37.178Z,33.55
2018-12-29T06:33:10.010Z,32.73
2018-12-29T06:33:42.854Z,32.15
2018-12-29T06:34:15.699Z,32.48
2018-12-29T06:34:48.777Z,33.02
2018-12-29T06:35:21.738Z,32.13
2018-12-29T06:35:54.752Z,32.60
2018-12-29T06:36:27.742Z,34.15
2018-12-29T06:37:00.902Z,33.42
2018-12-29T06:37:33.916Z,32.35
2018-12-29T06:38:06.834Z,31.93
2018-12-29T06:38:39.931Z,32.73
2018-12-29T06:39:13.102Z,32.17
2018-12-29T06:39:46.107Z,32.90
2018-12-29T06:40:19.134Z,32.20
2018-12-29T06:40:52.149Z,31.37
2018-12-29T06:41:25.108Z,32.55
2018-12-29T06:41:57.898Z,31.45
2018-12-29T06:42:30.950Z,31.70
2018-12-29T06:43:03.836Z,32.90
2018-12-29T06:43:36.892Z,32.08
2018-12-29T06:44:09.818Z,32.50
2018-12-29T06:44:42.736Z,31.90
2018-12-29T06:45:15.636Z,32.05
2018-12-29T06:45:48.680Z,32.33
2018-12-29T06:46:21.700Z,32.27
2018-12-29T06:46:54.574Z,31.48
2018-12-29T06:47:27.448Z,31.75
2018-12-29T06:48:00.477Z,32.45
2018-12-29T06:48:33.580Z,32.13
2018-12-29T06:49:06.738Z,31.42
2018-12-29T06:49:39.728Z,32.15
2018-12-29T06:50:12.978Z,32.05
2018-12-29T06:50:45.878Z,31.42
2018-12-29T06:51:19.020Z,31.85
2018-12-29T06:51:51.911Z,31.12
2018-12-29T06:52:24.948Z,31.23
2018-12-29T06:52:57.725Z,32.38
2018-12-29T06:53:30.795Z,31.85
2018-12-29T06:54:03.915Z,31.57
2018-12-29T06:54:36.831Z,30.68
2018-12-29T06:55:09.816Z,31.90
2018-12-29T06:55:42.878Z,31.90
2018-12-29T06:56:15.761Z,31.52
2018-12-29T06:56:48.700Z,31.37
2018-12-29T06:57:21.599Z,31.50
2018-12-29T06:57:54.561Z,31.17
2018-12-29T06:58:27.472Z,31.07
2018-12-29T06:59:00.298Z,30.85
2018-12-29T06:59:33.113Z,31.62
2018-12-29T07:00:06.599Z,31.52
2018-12-29T07:00:39.524Z,30.52
2018-12-29T07:01:12.507Z,31.15
2018-12-29T07:01:45.443Z,30.62
2018-12-29T07:02:18.529Z,30.75
2018-12-29T07:02:51.511Z,30.95
2018-12-29T07:03:24.572Z,30.82
2018-12-29T07:03:57.590Z,30.23
2018-12-29T07:04:30.533Z,30.68
2018-12-29T07:05:03.578Z,30.12
2018-12-29T07:05:36.564Z,30.02
2018-12-29T07:06:09.681Z,29.85
2018-12-29T07:06:42.627Z,30.17
2018-12-29T07:07:15.581Z,30.72
2018-12-29T07:07:48.620Z,29.98
2018-12-29T07:08:21.693Z,30.57
2018-12-29T07:08:54.767Z,30.35
2018-12-29T07:09:27.745Z,29.20
2018-12-29T07:10:00.880Z,30.27
2018-12-29T07:10:33.919Z,29.92
2018-12-29T07:11:06.921Z,30.15
2018-12-29T07:11:39.992Z,30.23
2018-12-29T07:13:39.220Z,29.98
2018-12-29T07:14:12.187Z,29.55
2018-12-29T07:14:45.136Z,29.65
2018-12-29T07:15:18.013Z,29.10
2018-12-29T07:15:51.077Z,29.15
2018-12-29T07:16:24.113Z,29.25
2018-12-29T07:16:57.192Z,29.72
2018-12-29T07:17:30.161Z,29.37
2018-12-29T07:18:03.221Z,29.72
2018-12-29T07:18:36.183Z,29.72